createdAt,value
2022-09-17T00:01:15.134Z,74.46
2022-09-17T00:03:43.046Z,74.02
2022-09-17T00:06:12.234Z,73.76
2022-09-17T00:08:40.848Z,75.02
2022-09-17T00:11:10.655Z,73.58
2022-09-17T00:13:38.100Z,73.98
2022-09-17T00:16:05.748Z,74.82
2022-09-17T00:18:33.629Z,74.54
2022-09-17T00:21:00.976Z,75.88
2022-09-17T00:23:28.430Z,74.23
2022-09-17T00:25:56.134Z,75.46
2022-09-17T00:28:23.505Z,76.03
2022-09-17T00:30:51.007Z,76.27
2022-09-17T00:33:20.129Z,76.50
2022-09-17T00:35:59.742Z,77.29
2022-09-17T00:38:28.028Z,75.12
2022-09-17T00:40:55.782Z,75.38
2022-09-17T00:43:53.412Z,73.64
2022-09-17T00:46:40.779Z,73.84
2022-09-17T00:49:13.432Z,73.88
2022-09-17T00:51:46.798Z,74.54
2022-09-17T00:54:15.046Z,72.00
2022-09-17T00:56:43.903Z,73.70
2022-09-17T00:59:11.531Z,74.28
2022-09-17T01:01:39.084Z,76.05
2022-09-17T01:04:07.102Z,76.00
2022-09-17T01:06:53.948Z,73.89
2022-09-17T01:09:25.291Z,74.11
2022-09-17T01:11:55.557Z,74.96
2022-09-17T01:14:57.655Z,74.38
2022-09-17T01:17:49.515Z,76.01
2022-09-17T01:20:45.358Z,73.97
2022-09-17T01:23:24.686Z,74.31
2022-09-17T01:26:17.197Z,73.43
2022-09-17T01:28:57.170Z,74.16
2022-09-17T01:31:42.502Z,75.13
2022-09-17T01:34:12.715Z,73.43
2022-09-17T01:37:05.027Z,73.10
2022-09-17T01:39:38.502Z,73.20
2022-09-17T01:42:09.873Z,75.39
2022-09-17T01:45:15.525Z,73.98
2022-09-17T01:47:55.131Z,73.72
2022-09-17T01:50:26.893Z,74.70
2022-09-17T01:52:55.853Z,74.33
2022-09-17T01:55:28.195Z,72.33
2022-09-17T01:58:02.965Z,72.99
2022-09-17T02:00:30.497Z,73.70
2022-09-17T02:03:08.317Z,74.45
2022-09-17T02:05:47.334Z,73.14
2022-09-17T02:08:15.831Z,73.57
2022-09-17T02:10:52.561Z,72.64
2022-09-17T02:13:30.004Z,71.58
2022-09-17T02:16:03.231Z,72.81
2022-09-17T02:18:38.499Z,72.95
2022-09-17T02:21:16.741Z,71.38
2022-09-17T02:23:57.977Z,71.05
2022-09-17T02:26:26.434Z,70.34
2022-09-17T02:28:57.342Z,69.75
2022-09-17T02:31:24.750Z,71.18
2022-09-17T02:33:55.058Z,71.86
2022-09-17T02:36:23.831Z,69.73
2022-09-17T02:38:59.495Z,70.89
2022-09-17T02:41:39.036Z,72.56
2022-09-17T02:44:22.188Z,71.34
2022-09-17T02:47:14.510Z,69.31
2022-09-17T02:50:06.455Z,70.23
2022-09-17T02:52:49.358Z,69.13
2022-09-17T02:55:20.205Z,71.22
2022-09-17T02:57:56.973Z,70.82
2022-09-17T03:00:26.690Z,70.85
2022-09-17T03:02:58.962Z,73.30
2022-09-17T03:05:28.017Z,70.17
2022-09-17T03:07:59.402Z,69.68
2022-09-17T03:10:33.480Z,72.20
2022-09-17T03:13:01.112Z,70.62
2022-09-17T03:15:28.434Z,71.59
2022-09-17T03:17:55.859Z,70.83
2022-09-17T03:20:23.774Z,72.14
2022-09-17T03:22:52.081Z,70.04
2022-09-17T03:25:19.407Z,71.17
2022-09-17T03:27:48.306Z,71.66
2022-09-17T03:30:15.703Z,70.92
2022-09-17T03:32:43.022Z,70.93
2022-09-17T03:35:10.616Z,70.49
2022-09-17T03:37:38.114Z,72.83
2022-09-17T03:40:06.187Z,73.50
2022-09-17T03:42:33.800Z,72.60
2022-09-17T03:45:01.206Z,73.40
2022-09-17T03:47:28.553Z,71.55
2022-09-17T03:49:56.203Z,70.55
2022-09-17T03:52:23.562Z,70.21
2022-09-17T03:54:50.922Z,69.79
2022-09-17T03:57:18.540Z,71.31
2022-09-17T03:59:45.888Z,70.55
2022-09-17T04:02:13.350Z,71.82
2022-09-17T04:04:41.012Z,70.21
2022-09-17T04:07:08.392Z,70.70
2022-09-17T04:09:35.739Z,71.42
2022-09-17T04:12:03.623Z,70.34
2022-09-17T04:14:31.007Z,71.17
2022-09-17T04:16:59.126Z,69.54
2022-09-17T04:19:26.744Z,72.76
2022-09-17T04:21:54.124Z,72.61
2022-09-17T04:24:21.489Z,71.72
2022-09-17T04:26:49.092Z,71.36
2022-09-17T04:29:16.408Z,72.27
2022-09-17T04:31:43.818Z,73.04
2022-09-17T04:34:11.454Z,73.54
2022-09-17T04:36:38.815Z,71.78
2022-09-17T04:39:06.246Z,71.65
2022-09-17T04:41:33.897Z,69.84
2022-09-17T04:44:01.313Z,70.36
2022-09-17T04:46:28.720Z,70.87
2022-09-17T04:48:56.645Z,71.33
2022-09-17T04:51:23.963Z,71.82
2022-09-17T04:53:51.331Z,70.13
2022-09-17T04:56:18.936Z,71.25
2022-09-17T04:58:46.280Z,71.30
2022-09-17T05:01:15.220Z,71.12
2022-09-17T05:03:43.159Z,69.80
2022-09-17T05:06:10.778Z,70.99
2022-09-17T05:08:38.097Z,71.98
2022-09-17T05:11:05.703Z,72.02
2022-09-17T05:13:33.050Z,69.96
2022-09-17T05:16:00.473Z,68.15
2022-09-17T05:18:28.149Z,67.74
2022-09-17T05:20:55.466Z,71.04
2022-09-17T05:23:22.851Z,71.15
2022-09-17T05:25:50.697Z,71.81
2022-09-17T05:28:18.031Z,71.43
2022-09-17T05:30:45.368Z,71.15
2022-09-17T05:33:13.013Z,71.56
2022-09-17T05:35:40.706Z,72.50
2022-09-17T05:38:08.182Z,71.77
2022-09-17T05:40:37.398Z,73.59
2022-09-17T05:43:06.868Z,72.87
2022-09-17T05:45:35.135Z,70.70
2022-09-17T05:48:04.183Z,71.72
2022-09-17T05:50:32.021Z,72.20
2022-09-17T05:53:07.461Z,71.62
2022-09-17T05:55:35.298Z,70.46
2022-09-17T05:58:12.671Z,70.83
2022-09-17T06:00:41.205Z,71.97
2022-09-17T06:03:10.498Z,71.34
2022-09-17T06:05:37.915Z,69.62
2022-09-17T06:08:05.791Z,71.63
2022-09-17T06:10:37.265Z,71.70
2022-09-17T06:13:04.671Z,71.14
2022-09-17T06:15:32.023Z,72.49
2022-09-17T06:17:59.659Z,73.23
2022-09-17T06:20:27.106Z,69.76
2022-09-17T06:22:58.070Z,70.18
2022-09-17T06:25:26.587Z,71.25
2022-09-17T06:27:53.945Z,71.57
2022-09-17T06:30:21.344Z,68.87
2022-09-17T06:32:49.014Z,69.40
2022-09-17T06:35:16.398Z,69.54
2022-09-17T06:37:43.747Z,68.78
2022-09-17T06:40:11.398Z,68.00
2022-09-17T06:42:38.787Z,67.21
2022-09-17T06:45:10.261Z,67.48
2022-09-17T06:47:40.769Z,67.14
2022-09-17T06:50:08.249Z,65.70
2022-09-17T06:52:35.572Z,66.41
2022-09-17T06:55:03.275Z,67.50
2022-09-17T06:57:30.662Z,69.58
2022-09-17T06:59:58.028Z,68.08
2022-09-17T07:02:25.815Z,66.77
2022-09-17T07:04:55.198Z,67.95
2022-09-17T07:07:22.555Z,70.08
2022-09-17T07:09:50.155Z,71.11
2022-09-17T07:12:17.534Z,66.66
2022-09-17T07:14:45.122Z,67.02
2022-09-17T07:17:12.770Z,68.07
2022-09-17T07:19:40.174Z,68.04
2022-09-17T07:22:08.228Z,69.63
2022-09-17T07:24:35.857Z,67.92
2022-09-17T07:27:03.208Z,67.82
2022-09-17T07:29:31.560Z,67.46
2022-09-17T07:31:59.785Z,66.35
2022-09-17T07:34:29.091Z,67.41
2022-09-17T07:36:56.496Z,66.72
2022-09-17T07:39:24.265Z,68.64
2022-09-17T07:41:51.977Z,68.14
2022-09-17T07:44:19.306Z,68.40
2022-09-17T07:46:46.949Z,68.19
2022-09-17T07:49:14.388Z,68.04
2022-09-17T07:51:41.736Z,69.03
2022-09-17T07:54:09.328Z,69.50
2022-09-17T07:56:36.666Z,67.11
2022-09-17T07:59:04.374Z,66.92
2022-09-17T08:01:34.241Z,65.21
2022-09-17T08:04:02.513Z,67.62
2022-09-17T08:06:30.084Z,66.30
2022-09-17T08:08:58.931Z,65.06
2022-09-17T08:14:16.480Z,66.97
2022-09-17T08:16:46.426Z,65.33
2022-09-17T08:19:13.834Z,65.14
2022-09-17T08:21:41.243Z,66.88
2022-09-17T08:24:08.935Z,65.25
2022-09-17T08:26:36.269Z,65.22
2022-09-17T08:29:03.628Z,65.79
2022-09-17T08:31:33.446Z,66.29
2022-09-17T08:34:01.420Z,66.14
2022-09-17T08:36:28.788Z,67.07
2022-09-17T08:38:56.805Z,65.09
2022-09-17T08:41:34.161Z,66.36
2022-09-17T08:44:12.862Z,66.00
2022-09-17T08:46:53.572Z,66.29
2022-09-17T08:49:24.136Z,66.76
2022-09-17T08:51:53.312Z,67.39
2022-09-17T08:54:56.247Z,68.28
2022-09-17T08:57:37.373Z,66.86
2022-09-17T09:00:13.314Z,67.60
2022-09-17T09:02:58.964Z,66.86
2022-09-17T09:05:43.803Z,66.58
2022-09-17T09:08:19.359Z,65.58
2022-09-17T09:10:55.413Z,64.98
2022-09-17T09:13:25.638Z,66.53
2022-09-17T09:16:01.471Z,66.18
2022-09-17T09:18:34.853Z,64.10
2022-09-17T09:21:11.547Z,65.34
2022-09-17T09:23:46.143Z,64.43
2022-09-17T09:26:19.032Z,63.65
2022-09-17T09:29:17.964Z,64.31
2022-09-17T09:32:15.480Z,64.38
2022-09-17T09:34:44.173Z,65.49
2022-09-17T09:37:22.122Z,64.92
2022-09-17T09:39:51.444Z,61.36
2022-09-17T09:42:32.610Z,65.66
2022-09-17T09:45:05.159Z,64.08
2022-09-17T09:48:06.842Z,64.05
2022-09-17T09:51:02.270Z,64.31
2022-09-17T09:53:51.768Z,64.25
2022-09-17T09:56:32.674Z,63.77
2022-09-17T09:59:01.357Z,63.88
2022-09-17T10:01:30.296Z,63.76
2022-09-17T10:03:58.994Z,62.83
2022-09-17T10:06:29.787Z,62.41
2022-09-17T10:08:57.161Z,64.04
2022-09-17T10:11:29.574Z,63.10
2022-09-17T10:14:15.387Z,62.87
2022-09-17T10:16:43.028Z,61.56
2022-09-17T10:19:14.547Z,61.52
2022-09-17T10:21:42.991Z,60.99
2022-09-17T10:24:19.548Z,60.12
2022-09-17T10:26:46.952Z,60.71
2022-09-17T10:29:17.227Z,59.32
2022-09-17T10:31:53.141Z,59.93
2022-09-17T10:34:26.256Z,59.81
2022-09-17T10:36:56.113Z,58.74
2022-09-17T10:39:26.740Z,59.78
2022-09-17T10:41:59.291Z,57.98
2022-09-17T10:44:32.538Z,58.84
2022-09-17T10:47:23.236Z,57.02
2022-09-17T10:49:57.662Z,56.80
2022-09-17T10:52:27.647Z,57.12
2022-09-17T10:55:08.288Z,56.07
2022-09-17T10:58:05.975Z,56.27
2022-09-17T11:01:01.581Z,56.38
2022-09-17T11:03:50.590Z,56.79
2022-09-17T11:06:56.733Z,56.02
2022-09-17T11:09:27.023Z,56.02
2022-09-17T11:11:57.539Z,56.22
2022-09-17T11:14:24.879Z,57.22
2022-09-17T11:17:08.122Z,58.66
2022-09-17T11:19:45.452Z,58.80
2022-09-17T11:22:18.638Z,56.41
2022-09-17T11:25:40.173Z,55.72
2022-09-17T11:28:47.202Z,56.68
2022-09-17T11:31:21.786Z,56.39
2022-09-17T11:34:18.521Z,58.34
2022-09-17T11:36:56.774Z,57.34
2022-09-17T11:39:33.514Z,59.18
2022-09-17T11:42:03.594Z,58.52
2022-09-17T11:44:30.977Z,59.71
2022-09-17T11:47:14.271Z,58.32
2022-09-17T11:49:56.524Z,58.93
2022-09-17T11:52:27.534Z,57.54
2022-09-17T11:55:18.363Z,58.39
2022-09-17T11:57:47.022Z,55.76
2022-09-17T12:00:22.682Z,54.75
2022-09-17T12:03:23.919Z,56.91
2022-09-17T12:06:00.156Z,54.65
2022-09-17T12:09:04.932Z,55.17
2022-09-17T12:11:40.897Z,55.34
2022-09-17T12:14:16.421Z,56.26
2022-09-17T12:16:45.487Z,56.07
2022-09-17T12:19:31.428Z,56.08
2022-09-17T12:22:08.009Z,55.04
2022-09-17T12:24:35.637Z,56.69
2022-09-17T12:27:41.282Z,56.09
2022-09-17T12:30:11.922Z,55.65
2022-09-17T12:33:00.852Z,57.20
2022-09-17T12:36:03.975Z,54.81
2022-09-17T12:38:46.942Z,55.56
2022-09-17T12:41:33.622Z,56.77
2022-09-17T12:44:29.879Z,56.75
2022-09-17T12:47:19.312Z,57.66
2022-09-17T12:49:54.540Z,55.49
2022-09-17T12:52:45.676Z,54.96
2022-09-17T12:55:31.645Z,54.97
2022-09-17T12:58:12.439Z,55.78
2022-09-17T13:00:44.249Z,55.17
2022-09-17T13:03:29.213Z,54.45
2022-09-17T13:06:27.609Z,53.51
2022-09-17T13:09:05.389Z,52.96
2022-09-17T13:11:52.723Z,55.13
2022-09-17T13:14:33.137Z,55.67
2022-09-17T13:17:31.024Z,55.99
2022-09-17T13:20:15.880Z,55.98
2022-09-17T13:22:45.794Z,57.35
2022-09-17T13:25:15.687Z,56.04
2022-09-17T13:27:44.535Z,56.20
2022-09-17T13:30:15.175Z,55.88
2022-09-17T13:32:44.186Z,56.14
2022-09-17T13:35:17.077Z,56.38
2022-09-17T13:37:44.549Z,58.07
2022-09-17T13:40:26.963Z,57.56
2022-09-17T13:42:56.696Z,57.10
2022-09-17T13:45:25.209Z,57.03
2022-09-17T13:48:07.989Z,56.71
2022-09-17T13:50:43.300Z,57.54
2022-09-17T13:53:13.550Z,56.00
2022-09-17T13:55:56.977Z,57.66
2022-09-17T13:58:32.405Z,58.21
2022-09-17T14:01:01.333Z,56.87
2022-09-17T14:03:28.927Z,57.15
2022-09-17T14:06:21.102Z,55.92
2022-09-17T14:08:50.420Z,55.74
2022-09-17T14:11:24.093Z,58.16
2022-09-17T14:13:55.200Z,58.03
2022-09-17T14:16:33.911Z,57.52
2022-09-17T14:19:17.155Z,58.01
2022-09-17T14:21:59.595Z,58.79
2022-09-17T14:24:37.520Z,57.20
2022-09-17T14:27:23.535Z,57.32
2022-09-17T14:30:01.743Z,56.30
2022-09-17T14:32:39.400Z,58.23
2022-09-17T14:35:19.944Z,58.21
2022-09-17T14:37:57.681Z,57.22
2022-09-17T14:40:26.293Z,56.81
2022-09-17T14:42:56.575Z,55.97
2022-09-17T14:45:37.342Z,57.05
2022-09-17T14:48:28.197Z,58.36
2022-09-17T14:51:17.600Z,56.44
2022-09-17T14:53:46.548Z,56.13
2022-09-17T14:56:19.598Z,56.42
2022-09-17T14:58:52.811Z,57.18
2022-09-17T15:01:30.597Z,57.25
2022-09-17T15:04:13.367Z,55.40
2022-09-17T15:06:41.188Z,56.94
2022-09-17T15:09:27.814Z,56.45
2022-09-17T15:11:58.709Z,56.85
2022-09-17T15:14:30.974Z,57.95
2022-09-17T15:16:59.990Z,56.94
2022-09-17T15:19:36.033Z,58.17
2022-09-17T15:22:26.105Z,57.28
2022-09-17T15:25:08.536Z,58.44
2022-09-17T15:27:38.059Z,59.41
2022-09-17T15:30:26.262Z,59.14
2022-09-17T15:32:55.630Z,59.87
2022-09-17T15:35:33.214Z,60.25
2022-09-17T15:38:22.239Z,59.37
2022-09-17T15:40:51.765Z,57.94
2022-09-17T15:43:27.309Z,59.85
2022-09-17T15:45:56.230Z,57.62
2022-09-17T15:48:34.408Z,59.46
2022-09-17T15:51:03.743Z,59.23
2022-09-17T15:53:32.609Z,60.40
2022-09-17T15:56:05.770Z,59.31
2022-09-17T15:58:42.516Z,58.74
2022-09-17T16:01:16.074Z,60.01
2022-09-17T16:03:43.715Z,60.01
2022-09-17T16:06:19.859Z,58.97
2022-09-17T16:08:53.410Z,58.90
2022-09-17T16:11:22.639Z,59.67
2022-09-17T16:13:51.367Z,59.61
2022-09-17T16:16:23.970Z,60.17
2022-09-17T16:18:51.666Z,59.62
2022-09-17T16:21:19.903Z,60.19
2022-09-17T16:23:47.246Z,60.10
2022-09-17T16:26:20.015Z,58.46
2022-09-17T16:28:48.936Z,59.43
2022-09-17T16:31:16.594Z,59.77
2022-09-17T16:33:44.117Z,59.59
2022-09-17T16:36:11.524Z,59.94
2022-09-17T16:38:40.533Z,59.10
2022-09-17T16:41:07.924Z,60.49
2022-09-17T16:43:35.540Z,59.20
2022-09-17T16:46:12.329Z,61.14
2022-09-17T16:48:41.115Z,61.02
2022-09-17T16:51:12.886Z,60.02
2022-09-17T16:53:40.687Z,59.63
2022-09-17T16:56:09.271Z,59.15
2022-09-17T16:58:37.057Z,60.39
2022-09-17T17:01:09.303Z,60.24
2022-09-17T17:03:36.991Z,60.94
2022-09-17T17:06:04.533Z,62.59
2022-09-17T17:08:32.822Z,61.09
2022-09-17T17:11:01.039Z,59.78
2022-09-17T17:13:28.838Z,59.01
2022-09-17T17:15:56.243Z,62.10
2022-09-17T17:18:24.587Z,64.06
2022-09-17T17:20:51.939Z,63.62
2022-09-17T17:23:19.274Z,64.82
2022-09-17T17:25:46.897Z,64.75
2022-09-17T17:28:15.011Z,63.71
2022-09-17T17:30:47.264Z,64.11
2022-09-17T17:33:14.877Z,64.29
2022-09-17T17:35:42.260Z,62.96
2022-09-17T17:38:09.592Z,63.09
2022-09-17T17:40:37.276Z,62.64
2022-09-17T17:43:04.635Z,62.53
2022-09-17T17:45:31.958Z,63.48
2022-09-17T17:47:59.642Z,62.95
2022-09-17T17:50:26.980Z,62.14
2022-09-17T17:52:55.096Z,60.77
2022-09-17T17:55:22.788Z,60.72
2022-09-17T17:58:01.202Z,62.32
2022-09-17T18:00:29.400Z,62.24
2022-09-17T18:02:57.068Z,61.81
2022-09-17T18:05:24.473Z,60.94
2022-09-17T18:07:51.816Z,60.53
2022-09-17T18:10:19.789Z,62.03
2022-09-17T18:12:50.608Z,60.14
2022-09-17T18:15:18.048Z,62.00
2022-09-17T18:17:48.025Z,61.33
2022-09-17T18:20:15.738Z,63.35
2022-09-17T18:22:43.100Z,62.93
2022-09-17T18:25:10.768Z,61.60
2022-09-17T18:27:38.111Z,60.89
2022-09-17T18:30:06.002Z,63.30
2022-09-17T18:32:33.627Z,62.18
2022-09-17T18:35:01.207Z,62.33
2022-09-17T18:37:29.091Z,62.79
2022-09-17T18:39:59.067Z,62.13
2022-09-17T18:42:27.315Z,63.97
2022-09-17T18:44:54.914Z,62.99
2022-09-17T18:47:22.716Z,62.34
2022-09-17T18:49:50.076Z,61.80
2022-09-17T18:52:17.413Z,62.32
2022-09-17T18:54:46.045Z,61.33
2022-09-17T18:57:13.455Z,61.82
2022-09-17T18:59:40.861Z,61.00
2022-09-17T19:02:11.952Z,63.60
2022-09-17T19:04:39.364Z,61.71
2022-09-17T19:07:07.023Z,60.53
2022-09-17T19:09:34.641Z,62.39
2022-09-17T19:12:02.336Z,62.92
2022-09-17T19:14:29.669Z,63.96
2022-09-17T19:16:57.319Z,62.38
2022-09-17T19:19:24.640Z,63.15
2022-09-17T19:21:51.985Z,61.47
2022-09-17T19:24:19.622Z,61.74
2022-09-17T19:26:50.798Z,61.15
2022-09-17T19:29:18.325Z,61.50
2022-09-17T19:31:45.997Z,64.21
2022-09-17T19:34:13.356Z,63.37
2022-09-17T19:36:40.686Z,63.03
2022-09-17T19:39:08.318Z,62.89
2022-09-17T19:41:36.306Z,61.97
2022-09-17T19:44:03.797Z,63.67
2022-09-17T19:46:32.375Z,63.54
2022-09-17T19:49:01.029Z,62.67
2022-09-17T19:51:32.047Z,64.30
2022-09-17T19:53:59.673Z,65.33
2022-09-17T19:56:27.903Z,63.15
2022-09-17T19:58:55.344Z,63.07
2022-09-17T20:01:23.050Z,62.67
2022-09-17T20:03:50.646Z,64.40
2022-09-17T20:06:20.755Z,67.09
2022-09-17T20:08:51.915Z,66.55
2022-09-17T20:11:21.073Z,67.43
2022-09-17T20:13:48.897Z,67.11
2022-09-17T20:16:19.344Z,65.76
2022-09-17T20:18:48.084Z,68.31
2022-09-17T20:21:20.897Z,66.61
2022-09-17T20:23:49.270Z,66.35
2022-09-17T20:26:17.022Z,65.89
2022-09-17T20:28:44.522Z,64.22
2022-09-17T20:31:13.540Z,66.96
2022-09-17T20:33:41.708Z,67.50
2022-09-17T20:36:12.986Z,67.25
2022-09-17T20:41:29.060Z,69.38
2022-09-17T20:43:56.683Z,67.95
2022-09-17T20:46:28.992Z,66.85
2022-09-17T20:48:58.462Z,67.66
2022-09-17T20:51:28.262Z,68.61
2022-09-17T20:53:57.322Z,69.03
2022-09-17T20:56:31.406Z,68.87
2022-09-17T20:59:07.869Z,68.04
2022-09-17T21:01:37.544Z,68.92
2022-09-17T21:04:07.140Z,69.52
2022-09-17T21:06:41.083Z,70.01
2022-09-17T21:09:15.517Z,70.48
2022-09-17T21:11:47.071Z,70.01
2022-09-17T21:14:15.911Z,69.65
2022-09-17T21:16:44.772Z,68.36
2022-09-17T21:19:13.404Z,67.04
2022-09-17T21:21:40.754Z,69.48
2022-09-17T21:24:10.183Z,68.69
2022-09-17T21:26:37.828Z,69.91
2022-09-17T21:29:05.362Z,69.09
2022-09-17T21:31:34.707Z,72.75
2022-09-17T21:34:07.681Z,73.04
2022-09-17T21:36:37.314Z,73.22
2022-09-17T21:39:14.043Z,72.84
2022-09-17T21:41:45.535Z,72.62
2022-09-17T21:44:13.278Z,73.28
2022-09-17T21:46:41.566Z,73.50
2022-09-17T21:49:09.495Z,72.27
2022-09-17T21:51:42.041Z,73.02
2022-09-17T21:54:12.098Z,74.63
2022-09-17T21:56:39.484Z,76.62
2022-09-17T21:59:08.722Z,75.97
2022-09-17T22:01:42.151Z,76.38
2022-09-17T22:04:12.582Z,75.69
2022-09-17T22:06:40.861Z,75.71
2022-09-17T22:09:14.528Z,78.17
2022-09-17T22:11:42.588Z,76.54
2022-09-17T22:14:15.688Z,75.65
2022-09-17T22:16:45.173Z,76.86
2022-09-17T22:19:14.701Z,76.46
2022-09-17T22:21:47.522Z,78.06
2022-09-17T22:24:16.203Z,76.27
2022-09-17T22:26:46.092Z,76.05
2022-09-17T22:29:18.984Z,77.75
2022-09-17T22:31:47.245Z,75.91
2022-09-17T22:34:20.655Z,76.53
2022-09-17T22:36:48.799Z,76.67
2022-09-17T22:39:19.056Z,75.33
2022-09-17T22:41:47.035Z,75.46
2022-09-17T22:44:17.668Z,75.34
2022-09-17T22:46:46.706Z,74.77
2022-09-17T22:49:14.970Z,76.92
2022-09-17T22:51:43.581Z,75.59
2022-09-17T22:54:12.909Z,76.31
2022-09-17T22:56:40.850Z,76.22
2022-09-17T22:59:08.584Z,73.93
2022-09-17T23:01:36.602Z,75.38
2022-09-17T23:04:05.159Z,75.03
2022-09-17T23:06:35.230Z,75.77
2022-09-17T23:09:02.771Z,77.67
2022-09-17T23:11:39.212Z,76.79
2022-09-17T23:14:09.567Z,76.92
2022-09-17T23:16:39.746Z,78.20
2022-09-17T23:19:07.649Z,77.43
2022-09-17T23:21:34.996Z,76.72
2022-09-17T23:24:03.632Z,76.30
2022-09-17T23:26:31.485Z,76.95
2022-09-17T23:29:04.661Z,75.07
2022-09-17T23:31:35.155Z,77.04
2022-09-17T23:34:04.081Z,76.82
2022-09-17T23:36:33.920Z,75.48
2022-09-17T23:39:04.531Z,75.23
2022-09-17T23:41:34.345Z,74.51
2022-09-17T23:44:04.790Z,75.38
2022-09-17T23:46:33.634Z,75.74
2022-09-17T23:49:01.792Z,76.67
2022-09-17T23:51:31.032Z,76.34
2022-09-17T23:53:59.365Z,78.46
2022-09-17T23:56:27.799Z,79.33
2022-09-17T23:58:56.399Z,79.08
